Time;durP1;ratioP1;P1;durP2;ratioP2;P2;SDS_P1;SDS_P2;PMS_P1;PMS_P2;Temp;Humidity;BMP_temperature;BMP_pressure;BME280_temperature;BME280_humidity;BME280_pressure;Samples;Min_cycle;Max_cycle;Signal;HPM_P1;HPM_P2
2022/11/09 03:48:09;;;;;;;6.85;2.88;;;8.90;92.70;;;;;;5027742;23;93570;-72
2022/11/09 03:50:39;;;;;;;9.13;3.40;;;8.90;92.30;;;;;;4898289;28;91522;-72
2022/11/09 03:53:06;;;;;;;9.18;3.25;;;8.90;93.00;;;;;;4896204;28;91510;-71
2022/11/09 03:55:32;;;;;;;5.68;2.45;;;9.00;92.80;;;;;;4885056;28;92195;-72
2022/11/09 03:57:59;;;;;;;6.43;2.88;;;9.00;92.80;;;;;;4898745;28;90891;-71
2022/11/09 04:00:25;;;;;;;8.23;2.72;;;9.00;92.80;;;;;;4892807;28;91983;-72
2022/11/09 04:02:51;;;;;;;6.57;3.05;;;9.00;92.70;;;;;;4898225;28;91958;-72
2022/11/09 04:05:16;;;;;;;7.15;3.08;;;9.10;93.10;;;;;;4886847;28;93285;-73
2022/11/09 04:07:47;;;;;;;9.25;3.20;;;9.10;92.60;;;;;;4878996;28;92879;-73
2022/11/09 04:10:13;;;;;;;7.05;2.92;;;9.10;92.80;;;;;;4886881;28;91355;-73
2022/11/09 04:12:38;;;;;;;7.05;2.90;;;9.10;92.60;;;;;;4898630;28;92114;-73
2022/11/09 04:15:05;;;;;;;6.10;2.97;;;9.10;93.10;;;;;;4891510;28;92249;-72
2022/11/09 04:17:30;;;;;;;5.90;2.75;;;9.10;92.80;;;;;;4885660;28;92140;-73
2022/11/09 04:19:56;;;;;;;8.05;2.58;;;9.10;92.80;;;;;;4898375;28;91731;-72
2022/11/09 04:22:21;;;;;;;5.97;2.97;;;9.10;92.90;;;;;;4895755;28;92431;-73
2022/11/09 04:24:47;;;;;;;6.30;2.83;;;9.00;92.80;;;;;;4893445;28;92310;-73
2022/11/09 04:27:13;;;;;;;6.93;2.92;;;9.10;93.10;;;;;;4897922;28;91991;-73
2022/11/09 04:29:38;;;;;;;6.68;3.00;;;9.10;93.20;;;;;;4894413;28;93073;-73
2022/11/09 04:32:04;;;;;;;9.07;2.88;;;9.10;93.30;;;;;;4897716;28;91842;-73
2022/11/09 04:34:29;;;;;;;9.50;2.88;;;9.20;93.00;;;;;;4894570;28;91856;-73
2022/11/09 04:36:55;;;;;;;7.65;2.90;;;9.10;93.10;;;;;;4896269;28;91967;-73
2022/11/09 04:39:21;;;;;;;7.50;3.30;;;9.10;93.00;;;;;;4890725;28;91886;-73
2022/11/09 04:41:46;;;;;;;6.82;2.92;;;9.20;93.10;;;;;;4893982;28;91354;-72
2022/11/09 04:44:12;;;;;;;10.57;3.90;;;9.20;93.10;;;;;;4884455;28;92656;-72
2022/11/09 04:46:38;;;;;;;10.52;4.22;;;9.20;93.20;;;;;;4889961;28;91964;-72
2022/11/09 04:49:03;;;;;;;8.45;3.70;;;9.30;93.10;;;;;;4900201;28;91827;-72
2022/11/09 04:51:29;;;;;;;8.38;3.63;;;9.30;93.00;;;;;;4899098;28;92047;-72
2022/11/09 04:53:55;;;;;;;6.68;3.35;;;9.30;93.20;;;;;;4893549;28;94777;-72
2022/11/09 04:56:21;;;;;;;7.88;3.20;;;9.30;93.10;;;;;;4888834;28;92084;-72
2022/11/09 04:58:48;;;;;;;6.30;3.28;;;9.40;93.10;;;;;;4891278;28;91308;-73
2022/11/09 05:01:14;;;;;;;7.15;2.65;;;9.50;92.90;;;;;;4892275;28;91703;-72
2022/11/09 05:03:40;;;;;;;7.32;3.42;;;9.40;92.40;;;;;;4881223;28;92469;-72
2022/11/09 05:08:51;;;;;;;7.43;3.15;;;9.50;92.40;;;;;;4880740;28;91322;-73
2022/11/09 05:11:16;;;;;;;7.30;3.22;;;9.60;92.40;;;;;;4888661;28;90714;-73
2022/11/09 05:13:42;;;;;;;6.88;3.15;;;9.50;92.60;;;;;;4880780;28;91614;-72
2022/11/09 05:16:08;;;;;;;6.22;2.90;;;9.50;92.60;;;;;;4879362;28;92006;-73
2022/11/09 05:18:34;;;;;;;7.38;2.97;;;9.50;92.80;;;;;;4891902;28;92205;-72
2022/11/09 05:21:01;;;;;;;7.15;3.53;;;9.60;93.20;;;;;;4879158;28;91730;-72
2022/11/09 05:26:11;;;;;;;9.30;3.90;;;9.60;93.40;;;;;;4884574;28;91682;-72
2022/11/09 05:28:37;;;;;;;7.05;3.47;;;9.60;93.40;;;;;;4891212;28;91932;-73
2022/11/09 05:31:03;;;;;;;6.50;3.33;;;9.70;93.30;;;;;;4890516;28;92496;-73
2022/11/09 05:33:29;;;;;;;7.25;3.25;;;9.70;93.10;;;;;;4884092;28;92353;-72
2022/11/09 05:35:54;;;;;;;9.73;3.60;;;9.80;93.20;;;;;;4890957;28;91182;-73
2022/11/09 05:38:21;;;;;;;8.48;3.92;;;9.80;92.90;;;;;;4890887;28;91692;-72
2022/11/09 05:40:53;;;;;;;8.60;4.03;;;9.80;92.90;;;;;;4888168;28;91938;-73
2022/11/09 05:43:19;;;;;;;10.98;3.55;;;9.90;92.90;;;;;;4885441;28;92784;-73
2022/11/09 05:45:45;;;;;;;13.55;4.70;;;9.90;92.70;;;;;;4891709;28;92266;-73
2022/11/09 05:48:12;;;;;;;10.13;4.50;;;9.90;92.70;;;;;;4879991;28;91777;-72
2022/11/09 05:50:40;;;;;;;11.02;4.30;;;9.90;92.60;;;;;;4877500;28;91474;-72
2022/11/09 05:53:06;;;;;;;9.60;4.03;;;9.90;92.50;;;;;;4888711;28;91735;-73
2022/11/09 05:55:32;;;;;;;10.63;4.07;;;10.00;92.30;;;;;;4877333;28;92079;-74
2022/11/09 05:57:58;;;;;;;10.63;4.20;;;10.00;92.40;;;;;;4880444;28;92243;-72
2022/11/09 06:00:24;;;;;;;9.23;4.38;;;10.10;92.50;;;;;;4884606;28;91233;-74
2022/11/09 06:02:50;;;;;;;8.60;4.03;;;10.10;92.50;;;;;;4884383;28;91894;-73
2022/11/09 06:05:16;;;;;;;11.38;4.47;;;10.10;92.60;;;;;;4888714;28;92163;-74
2022/11/09 06:07:42;;;;;;;12.10;4.97;;;10.10;92.80;;;;;;4884931;28;93035;-73
2022/11/09 06:10:08;;;;;;;11.85;5.13;;;10.10;92.90;;;;;;4889046;28;91973;-74
2022/11/09 06:12:34;;;;;;;13.00;5.07;;;10.10;92.90;;;;;;4883854;28;92111;-73
2022/11/09 06:15:00;;;;;;;11.60;4.70;;;10.10;92.80;;;;;;4889298;28;91931;-73
2022/11/09 06:17:26;;;;;;;12.00;5.45;;;10.10;92.80;;;;;;4888267;28;91307;-73
2022/11/09 06:19:51;;;;;;;15.80;6.07;;;10.20;92.80;;;;;;4883827;28;91423;-73
2022/11/09 06:22:17;;;;;;;16.67;5.70;;;10.20;92.90;;;;;;4878479;28;92221;-74
2022/11/09 06:24:43;;;;;;;15.45;5.20;;;10.30;92.90;;;;;;4881140;28;91167;-73
2022/11/09 06:27:08;;;;;;;15.00;5.85;;;10.30;92.80;;;;;;4882677;28;91962;-73
2022/11/09 06:29:34;;;;;;;11.98;5.22;;;10.30;93.00;;;;;;4882214;28;91399;-74
2022/11/09 06:32:00;;;;;;;14.73;5.53;;;10.30;93.10;;;;;;4882358;28;92686;-73
2022/11/09 06:34:25;;;;;;;12.25;5.70;;;10.30;93.20;;;;;;4881944;28;93465;-73
2022/11/09 06:36:51;;;;;;;14.60;5.30;;;10.40;92.90;;;;;;4878945;28;91682;-73
2022/11/09 06:39:17;;;;;;;10.23;4.05;;;10.40;93.00;;;;;;4897362;28;92617;-73
2022/11/09 06:41:42;;;;;;;9.43;4.88;;;10.40;92.90;;;;;;4881046;28;92717;-73
2022/11/09 06:44:08;;;;;;;9.88;4.13;;;10.50;92.80;;;;;;4880384;28;91478;-73
2022/11/09 06:46:34;;;;;;;8.90;4.07;;;10.50;92.70;;;;;;4885829;28;91876;-73
2022/11/09 06:49:00;;;;;;;9.27;3.65;;;10.60;92.50;;;;;;4889806;28;91358;-73
2022/11/09 06:51:26;;;;;;;11.40;4.63;;;10.60;92.40;;;;;;4893143;28;92291;-73
2022/11/09 06:53:52;;;;;;;13.60;3.67;;;10.70;92.50;;;;;;4881407;28;92417;-73
2022/11/09 06:56:18;;;;;;;8.82;3.83;;;10.70;92.40;;;;;;4880566;28;94153;-73
2022/11/09 06:58:43;;;;;;;13.82;4.20;;;10.70;92.30;;;;;;4889919;28;92012;-73
2022/11/09 07:01:11;;;;;;;16.05;4.03;;;10.70;92.20;;;;;;4881385;28;92410;-73
2022/11/09 07:03:38;;;;;;;9.68;3.45;;;10.70;92.10;;;;;;4884880;28;91348;-73
2022/11/09 07:06:06;;;;;;;10.73;3.58;;;10.80;92.00;;;;;;4889875;28;92093;-73
2022/11/09 07:08:32;;;;;;;8.73;4.00;;;10.90;91.80;;;;;;4879886;28;91399;-73
2022/11/09 07:11:14;;;;;;;9.00;3.50;;;11.00;91.90;;;;;;4876423;28;91791;-73
2022/11/09 07:13:40;;;;;;;11.95;3.50;;;11.40;92.00;;;;;;4882122;28;91298;-73
2022/11/09 07:16:07;;;;;;;9.63;3.85;;;12.30;90.50;;;;;;4881908;28;91654;-73
2022/11/09 07:18:33;;;;;;;14.68;3.63;;;12.80;87.00;;;;;;4886854;28;91387;-73
2022/11/09 07:20:59;;;;;;;24.58;4.10;;;13.20;84.60;;;;;;4881432;28;93395;-74
2022/11/09 07:23:25;;;;;;;16.17;3.38;;;13.00;83.50;;;;;;4882753;28;92249;-73
2022/11/09 07:25:51;;;;;;;18.00;3.50;;;12.90;83.60;;;;;;4883943;28;91448;-73
2022/11/09 07:28:16;;;;;;;11.55;3.50;;;12.80;85.00;;;;;;4882022;28;92070;-73
2022/11/09 07:30:42;;;;;;;10.10;3.55;;;12.80;84.40;;;;;;4880500;28;93568;-73
2022/11/09 07:33:14;;;;;;;9.82;3.17;;;12.80;85.00;;;;;;4899773;28;91904;-74
2022/11/09 07:35:40;;;;;;;10.07;2.63;;;12.80;84.60;;;;;;4881662;28;91915;-73
2022/11/09 07:38:05;;;;;;;11.80;2.67;;;12.80;84.70;;;;;;4883992;28;91141;-73
2022/11/09 07:40:31;;;;;;;10.82;2.50;;;12.80;84.40;;;;;;4882294;28;92682;-73
2022/11/09 07:42:58;;;;;;;8.90;2.10;;;12.90;84.70;;;;;;4882212;28;91952;-73
2022/11/09 07:45:24;;;;;;;8.07;2.42;;;12.90;84.20;;;;;;4884245;28;92216;-73
2022/11/09 07:47:58;;;;;;;5.05;2.13;;;13.00;84.10;;;;;;4886802;28;91952;-73
2022/11/09 07:50:25;;;;;;;7.00;2.30;;;13.00;83.50;;;;;;4885115;28;92088;-73
2022/11/09 07:52:51;;;;;;;6.63;2.20;;;13.10;83.50;;;;;;4886250;28;92543;-73
2022/11/09 07:55:17;;;;;;;5.60;2.25;;;13.00;83.20;;;;;;4893030;28;92158;-73
2022/11/09 07:57:43;;;;;;;6.97;2.10;;;13.00;84.20;;;;;;4900354;28;92375;-73
2022/11/09 08:00:10;;;;;;;4.80;1.90;;;13.00;84.50;;;;;;4892678;28;91577;-73
2022/11/09 08:02:35;;;;;;;3.92;1.67;;;13.10;83.50;;;;;;4894474;28;91148;-73
2022/11/09 08:05:02;;;;;;;17.48;2.13;;;13.30;82.30;;;;;;4894016;28;94237;-74
2022/11/09 08:07:28;;;;;;;14.40;1.88;;;13.40;78.60;;;;;;4894865;28;92946;-73
2022/11/09 08:09:54;;;;;;;16.10;2.60;;;13.50;77.90;;;;;;4900450;28;94272;-73
2022/11/09 08:12:19;;;;;;;6.30;2.63;;;13.70;78.30;;;;;;4906604;28;93152;-73
2022/11/09 08:14:45;;;;;;;8.50;2.92;;;14.20;78.40;;;;;;4899910;28;92562;-73
2022/11/09 08:17:11;;;;;;;10.55;3.08;;;14.80;76.10;;;;;;4882266;28;91539;-73
2022/11/09 08:19:37;;;;;;;8.05;3.38;;;15.50;74.00;;;;;;4884938;28;92600;-73
2022/11/09 08:22:02;;;;;;;13.40;5.18;;;15.60;73.40;;;;;;4891197;28;92299;-73
2022/11/09 08:24:28;;;;;;;11.68;6.43;;;15.40;73.50;;;;;;4884617;28;92041;-73
2022/11/09 08:26:54;;;;;;;13.27;3.83;;;15.10;73.40;;;;;;4888289;28;90965;-73
2022/11/09 08:29:20;;;;;;;10.18;3.70;;;14.90;74.30;;;;;;4877610;28;91620;-73
2022/11/09 08:31:49;;;;;;;18.55;4.93;;;14.70;74.00;;;;;;4891077;28;91771;-73
2022/11/09 08:34:15;;;;;;;12.63;3.83;;;14.50;74.60;;;;;;4878068;28;93114;-73
2022/11/09 08:36:40;;;;;;;9.30;3.53;;;14.50;74.90;;;;;;4883785;28;91718;-73
2022/11/09 08:39:06;;;;;;;9.52;2.90;;;14.40;75.90;;;;;;4880380;28;91589;-73
2022/11/09 08:41:32;;;;;;;7.38;2.72;;;14.30;75.20;;;;;;4887339;28;92594;-73
2022/11/09 08:43:58;;;;;;;7.90;3.03;;;14.20;74.90;;;;;;4877833;28;92039;-73
2022/11/09 08:46:24;;;;;;;8.63;2.88;;;14.00;75.70;;;;;;4887052;28;92075;-73
2022/11/09 08:48:49;;;;;;;8.13;2.90;;;13.90;76.80;;;;;;4880127;28;93120;-73
2022/11/09 08:51:15;;;;;;;5.90;3.22;;;13.80;77.90;;;;;;4886288;28;91402;-71
2022/11/09 08:53:41;;;;;;;7.25;2.88;;;13.90;79.00;;;;;;4880219;28;92109;-74
2022/11/09 08:56:08;;;;;;;9.40;2.92;;;14.00;79.40;;;;;;4884224;28;92021;-73
2022/11/09 08:58:34;;;;;;;8.65;3.97;;;14.10;79.50;;;;;;4877806;28;92501;-74
2022/11/09 09:01:00;;;;;;;6.53;2.88;;;14.20;79.50;;;;;;4878390;28;93249;-72
2022/11/09 09:03:26;;;;;;;9.93;3.10;;;14.50;78.80;;;;;;4885264;28;91346;-72
2022/11/09 09:05:52;;;;;;;13.63;3.35;;;14.70;76.30;;;;;;4882950;28;91893;-72
2022/11/09 09:08:20;;;;;;;9.27;2.83;;;15.00;75.90;;;;;;4883206;28;91580;-72
2022/11/09 09:10:46;;;;;;;10.10;3.92;;;15.30;76.50;;;;;;4877415;28;92760;-72
2022/11/09 09:13:12;;;;;;;9.98;3.65;;;15.60;74.50;;;;;;4877931;28;91816;-71
2022/11/09 09:15:38;;;;;;;7.97;3.80;;;15.80;73.40;;;;;;4877614;28;90666;-72
2022/11/09 09:18:04;;;;;;;11.90;4.22;;;16.00;73.70;;;;;;4880958;28;91445;-73
2022/11/09 09:20:30;;;;;;;8.35;3.58;;;16.20;73.20;;;;;;4879374;28;91934;-72
2022/11/09 09:23:00;;;;;;;11.20;3.42;;;16.30;72.80;;;;;;4879078;28;92846;-72
2022/11/09 09:25:26;;;;;;;13.73;3.17;;;16.30;73.90;;;;;;4882743;28;92250;-73
2022/11/09 09:27:52;;;;;;;11.68;2.97;;;16.40;72.80;;;;;;4884254;28;91733;-72
2022/11/09 09:30:17;;;;;;;10.50;3.00;;;16.40;73.10;;;;;;4878736;28;91617;-72
2022/11/09 09:32:43;;;;;;;8.57;3.15;;;16.40;71.40;;;;;;4885980;28;92010;-72
2022/11/09 09:35:09;;;;;;;15.25;3.47;;;16.40;72.20;;;;;;4881136;28;91374;-72
2022/11/09 09:37:35;;;;;;;8.32;3.55;;;16.40;72.30;;;;;;4882163;28;91862;-72
2022/11/09 09:40:00;;;;;;;9.73;3.85;;;16.50;71.30;;;;;;4881988;28;91275;-72
2022/11/09 09:42:41;;;;;;;12.30;3.78;;;17.00;71.00;;;;;;4877242;28;91960;-72
2022/11/09 09:45:16;;;;;;;10.02;4.05;;;17.40;67.90;;;;;;4877338;28;91313;-73
2022/11/09 09:48:12;;;;;;;9.13;3.75;;;17.50;67.20;;;;;;4875927;28;94252;-72
2022/11/09 09:50:47;;;;;;;9.85;3.63;;;17.40;68.10;;;;;;4860945;28;92931;-72
2022/11/09 09:53:21;;;;;;;12.48;4.63;;;17.50;68.10;;;;;;4891123;28;91357;-72
2022/11/09 09:55:53;;;;;;;8.27;3.95;;;17.70;67.50;;;;;;4888999;28;91603;-72
2022/11/09 09:58:26;;;;;;;10.73;3.58;;;18.00;66.80;;;;;;4892034;28;92698;-72
2022/11/09 10:00:56;;;;;;;9.77;2.90;;;18.00;66.50;;;;;;4895416;28;92010;-72
2022/11/09 10:03:22;;;;;;;7.95;2.10;;;17.90;64.60;;;;;;4885081;28;91520;-72
2022/11/09 10:06:15;;;;;;;5.85;2.22;;;17.70;63.30;;;;;;4886765;28;91757;-72
2022/11/09 10:09:08;;;;;;;5.78;2.95;;;17.50;64.80;;;;;;4888318;28;92109;-73
2022/11/09 10:11:47;;;;;;;9.63;2.88;;;17.20;63.80;;;;;;4881613;28;92017;-73
2022/11/09 10:14:38;;;;;;;7.57;3.03;;;16.90;66.00;;;;;;4880691;28;92616;-73
2022/11/09 10:17:49;;;;;;;9.05;3.10;;;16.60;68.30;;;;;;4888196;28;92032;-73
2022/11/09 10:20:44;;;;;;;10.50;2.85;;;16.20;69.00;;;;;;4848526;29;91591;-73
2022/11/09 10:23:39;;;;;;;13.00;3.13;;;16.00;69.90;;;;;;4882925;28;91907;-73
2022/11/09 10:26:16;;;;;;;12.18;3.00;;;16.00;70.50;;;;;;4883328;28;92224;-73
2022/11/09 10:28:44;;;;;;;11.98;3.63;;;16.30;71.40;;;;;;4878502;28;91866;-73
2022/11/09 10:31:16;;;;;;;8.32;2.92;;;16.40;69.50;;;;;;4877163;28;92333;-73
2022/11/09 10:33:47;;;;;;;7.28;3.20;;;16.40;69.30;;;;;;4878381;28;91298;-73
2022/11/09 10:36:41;;;;;;;8.50;3.00;;;16.50;70.20;;;;;;4877177;28;91441;-73
2022/11/09 10:39:12;;;;;;;12.27;3.22;;;16.70;69.20;;;;;;4875721;28;91581;-73
2022/11/09 10:41:43;;;;;;;8.77;2.55;;;16.70;69.40;;;;;;4876051;28;92766;-72
2022/11/09 10:44:18;;;;;;;8.55;2.30;;;16.70;69.80;;;;;;4887175;28;93375;-73
2022/11/09 10:47:08;;;;;;;13.18;3.00;;;16.70;68.50;;;;;;4876129;28;91791;-73
2022/11/09 10:49:33;;;;;;;;;;;16.40;69.60;;;;;;4877875;28;91632;-73
2022/11/09 10:52:00;;;;;;;6.82;2.53;;;16.30;70.00;;;;;;4885620;28;92089;-72
2022/11/09 10:54:27;;;;;;;7.40;2.42;;;16.30;69.70;;;;;;4891095;28;92029;-73
2022/11/09 10:57:23;;;;;;;6.72;2.22;;;16.20;70.90;;;;;;4880181;28;91952;-73
2022/11/09 10:59:51;;;;;;;6.10;2.70;;;16.20;70.60;;;;;;4867418;28;92313;-73
2022/11/09 11:02:26;;;;;;;6.93;2.33;;;16.10;70.00;;;;;;4880272;28;92470;-73
2022/11/09 11:04:58;;;;;;;6.78;2.13;;;16.00;69.40;;;;;;4880022;28;91978;-73
2022/11/09 11:07:24;;;;;;;5.90;2.72;;;16.00;70.40;;;;;;4878540;28;93256;-72
2022/11/09 11:09:50;;;;;;;5.90;2.65;;;16.10;70.90;;;;;;4885998;28;91458;-72
2022/11/09 11:12:19;;;;;;;10.43;2.50;;;16.20;71.50;;;;;;4881771;28;91769;-72
2022/11/09 11:14:45;;;;;;;6.38;2.50;;;16.20;71.60;;;;;;4886812;28;93126;-72
2022/11/09 11:17:33;;;;;;;8.25;2.50;;;16.20;72.60;;;;;;4881349;28;91798;-72
2022/11/09 11:20:32;;;;;;;6.45;2.50;;;16.20;72.00;;;;;;4882805;28;91748;-72
2022/11/09 11:23:19;;;;;;;9.07;2.55;;;16.10;72.50;;;;;;4879231;28;91791;-71
2022/11/09 11:25:54;;;;;;;4.72;2.40;;;16.10;72.80;;;;;;4880235;28;92550;-73
2022/11/09 11:28:19;;;;;;;6.60;2.85;;;16.00;72.90;;;;;;4881922;28;91842;-72
2022/11/09 11:30:45;;;;;;;6.20;2.67;;;16.10;72.60;;;;;;4879492;28;93109;-73
2022/11/09 11:33:15;;;;;;;5.78;2.65;;;16.10;73.60;;;;;;4881788;28;92989;-73
2022/11/09 11:35:44;;;;;;;7.50;2.38;;;16.00;73.80;;;;;;4885273;28;92103;-73
2022/11/09 11:38:32;;;;;;;6.53;3.03;;;16.00;73.70;;;;;;4884892;28;92227;-73
2022/11/09 11:41:16;;;;;;;5.25;2.35;;;16.10;74.00;;;;;;4888151;28;91636;-73
2022/11/09 11:43:56;;;;;;;6.75;3.10;;;16.00;74.00;;;;;;4876315;28;92279;-73
2022/11/09 11:46:45;;;;;;;5.60;2.30;;;16.00;73.40;;;;;;4881508;28;92192;-73
2022/11/09 11:49:26;;;;;;;8.23;2.50;;;16.00;74.00;;;;;;4881387;28;91408;-72
2022/11/09 11:52:13;;;;;;;8.23;2.20;;;15.90;73.60;;;;;;4881316;28;90778;-72
2022/11/09 11:54:56;;;;;;;5.97;2.03;;;15.90;73.10;;;;;;4885982;28;92171;-71
2022/11/09 11:57:39;;;;;;;5.32;1.80;;;15.80;73.50;;;;;;4880681;28;91844;-73
2022/11/09 12:00:19;;;;;;;4.10;1.88;;;16.00;74.10;;;;;;4888406;28;92882;-73
2022/11/09 12:02:44;;;;;;;4.45;1.88;;;16.20;73.00;;;;;;4881694;28;91974;-73
2022/11/09 12:05:29;;;;;;;8.00;2.65;;;16.30;72.40;;;;;;4889745;28;92615;-73
2022/11/09 12:08:15;;;;;;;4.65;2.30;;;16.30;72.60;;;;;;4891722;28;92662;-73
2022/11/09 12:10:56;;;;;;;10.13;3.10;;;16.40;71.70;;;;;;4894553;28;91526;-73
2022/11/09 12:13:34;;;;;;;12.60;2.55;;;16.50;72.10;;;;;;4886286;28;92024;-73
2022/11/09 12:16:08;;;;;;;8.18;2.70;;;16.50;73.50;;;;;;4880001;28;92852;-73
2022/11/09 12:19:08;;;;;;;12.50;3.03;;;16.60;72.30;;;;;;4886708;28;91841;-73
2022/11/09 12:22:08;;;;;;;6.35;2.85;;;16.60;72.60;;;;;;4891999;28;92556;-73
2022/11/09 12:24:52;;;;;;;6.88;2.65;;;16.80;73.20;;;;;;4881700;28;91819;-73
2022/11/09 12:27:36;;;;;;;5.15;2.55;;;16.80;72.70;;;;;;4889893;28;93169;-73
2022/11/09 12:30:13;;;;;;;6.43;2.72;;;16.70;72.60;;;;;;4890329;28;92862;-73
2022/11/09 12:32:39;;;;;;;5.68;2.15;;;16.60;73.00;;;;;;4893485;28;92078;-74
2022/11/09 12:35:07;;;;;;;6.03;2.67;;;16.60;73.40;;;;;;4891690;28;91938;-74
2022/11/09 12:37:37;;;;;;;6.55;2.50;;;16.60;73.00;;;;;;4885390;28;92261;-73
2022/11/09 12:40:22;;;;;;;8.98;2.53;;;16.50;73.20;;;;;;4885647;28;92540;-73
2022/11/09 12:42:54;;;;;;;6.65;3.08;;;16.40;73.40;;;;;;4887216;28;91555;-73
2022/11/09 12:45:34;;;;;;;6.88;2.65;;;16.30;73.70;;;;;;4895527;28;90577;-73
2022/11/09 12:48:29;;;;;;;6.03;2.53;;;16.30;74.40;;;;;;4883970;28;92637;-73
2022/11/09 12:50:57;;;;;;;5.93;2.90;;;16.20;74.50;;;;;;4880191;28;92140;-73
2022/11/09 12:53:26;;;;;;;7.22;2.90;;;16.00;74.70;;;;;;4888689;28;92682;-73
2022/11/09 12:56:08;;;;;;;7.53;2.70;;;16.00;74.80;;;;;;4877841;28;92179;-73
2022/11/09 12:58:37;;;;;;;5.05;2.83;;;16.00;75.60;;;;;;4884413;28;92718;-73
2022/11/09 13:01:09;;;;;;;7.05;3.05;;;15.90;75.60;;;;;;4879650;28;93345;-73
2022/11/09 13:03:57;;;;;;;11.38;3.35;;;16.00;76.40;;;;;;4885599;28;91741;-73
2022/11/09 13:06:24;;;;;;;5.80;2.40;;;15.80;76.30;;;;;;4880438;28;91820;-73
2022/11/09 13:09:05;;;;;;;5.50;2.40;;;15.70;76.80;;;;;;4881146;28;92188;-73
2022/11/09 13:11:38;;;;;;;6.57;3.15;;;15.70;77.20;;;;;;4884481;28;92012;-73
2022/11/09 13:14:26;;;;;;;3.65;2.08;;;15.60;77.60;;;;;;4881039;28;91874;-72
2022/11/09 13:16:56;;;;;;;4.15;2.08;;;15.60;78.20;;;;;;4883571;28;92211;-71
2022/11/09 13:19:34;;;;;;;5.70;2.40;;;15.50;78.00;;;;;;4889521;28;92676;-73
2022/11/09 13:22:15;;;;;;;10.68;4.35;;;15.40;78.50;;;;;;4882831;28;92212;-72
2022/11/09 13:25:00;;;;;;;9.27;4.38;;;15.30;79.10;;;;;;4896536;28;91463;-73
2022/11/09 13:27:39;;;;;;;7.57;2.40;;;15.30;79.10;;;;;;4885918;28;92144;-70
2022/11/09 13:30:23;;;;;;;6.40;2.65;;;15.30;79.50;;;;;;4881860;28;91672;-73
2022/11/09 13:33:15;;;;;;;5.28;1.90;;;15.20;80.40;;;;;;4884917;28;92272;-73
2022/11/09 13:35:41;;;;;;;4.80;1.95;;;15.30;80.50;;;;;;4881374;28;91723;-71
2022/11/09 13:38:20;;;;;;;7.90;3.65;;;15.30;80.60;;;;;;4890718;28;91353;-72
2022/11/09 13:40:55;;;;;;;9.38;2.92;;;15.30;80.40;;;;;;4881676;28;91921;-72
2022/11/09 13:43:25;;;;;;;8.68;3.47;;;15.40;81.40;;;;;;4879316;28;92395;-72
2022/11/09 13:46:18;;;;;;;9.48;4.93;;;15.40;81.30;;;;;;4879561;28;92690;-73
2022/11/09 13:48:45;;;;;;;4.72;2.35;;;15.40;82.40;;;;;;4883767;28;92343;-72
2022/11/09 13:51:24;;;;;;;7.07;2.40;;;15.30;82.60;;;;;;4892707;28;92010;-73
2022/11/09 13:53:54;;;;;;;5.85;2.10;;;15.20;83.00;;;;;;4891665;28;92975;-73
2022/11/09 13:56:32;;;;;;;7.80;2.35;;;15.10;83.20;;;;;;4883390;28;92154;-73
2022/11/09 13:59:16;;;;;;;4.93;2.35;;;15.10;83.90;;;;;;4889448;28;91553;-71
2022/11/09 14:01:52;;;;;;;7.65;2.83;;;15.10;84.20;;;;;;4882693;28;91972;-72
2022/11/09 14:04:29;;;;;;;7.22;2.33;;;15.00;84.30;;;;;;4884090;28;91423;-73
2022/11/09 14:07:19;;;;;;;7.05;2.20;;;15.00;84.40;;;;;;4891224;28;91380;-73
2022/11/09 14:10:02;;;;;;;8.20;2.60;;;15.00;85.30;;;;;;4888649;28;92041;-71
2022/11/09 14:12:30;;;;;;;5.65;2.20;;;15.00;84.10;;;;;;4890326;28;92593;-71
2022/11/09 14:15:02;;;;;;;6.75;2.20;;;14.90;84.40;;;;;;4895419;28;92275;-73
2022/11/09 14:17:36;;;;;;;5.25;2.30;;;14.90;85.00;;;;;;4892925;28;92055;-73
2022/11/09 14:20:05;;;;;;;5.60;2.72;;;14.90;84.70;;;;;;4895247;28;91295;-73
2022/11/09 14:22:34;;;;;;;6.25;2.55;;;14.80;85.80;;;;;;4886530;28;93863;-72
2022/11/09 14:25:21;;;;;;;7.65;3.00;;;14.70;86.10;;;;;;4885780;28;92024;-69
2022/11/09 14:27:56;;;;;;;5.25;2.58;;;14.60;85.70;;;;;;4887688;28;91616;-70
2022/11/09 14:30:27;;;;;;;7.88;2.95;;;14.60;85.70;;;;;;4883805;28;91321;-71
2022/11/09 14:32:54;;;;;;;7.82;2.78;;;14.60;86.00;;;;;;4878922;28;91748;-73
2022/11/09 14:35:34;;;;;;;6.68;2.80;;;14.60;86.70;;;;;;4892406;28;91948;-73
2022/11/09 14:38:14;;;;;;;6.90;2.90;;;14.40;87.60;;;;;;4888330;28;93394;-73
2022/11/09 14:40:44;;;;;;;7.35;3.30;;;14.30;88.30;;;;;;4880971;28;91762;-73
2022/11/09 14:43:24;;;;;;;6.35;2.85;;;14.30;88.70;;;;;;4878826;28;92111;-73
2022/11/09 14:46:01;;;;;;;5.93;3.40;;;14.20;89.30;;;;;;4889303;28;92236;-73
2022/11/09 14:48:29;;;;;;;6.35;3.47;;;14.10;89.70;;;;;;4879643;28;91287;-73
2022/11/09 14:50:58;;;;;;;6.90;3.80;;;14.10;90.30;;;;;;4889344;28;91444;-72
2022/11/09 14:53:27;;;;;;;7.13;3.47;;;14.00;90.40;;;;;;4878114;28;91754;-73
2022/11/09 14:55:54;;;;;;;7.60;3.80;;;14.00;90.30;;;;;;4883006;28;92490;-74
2022/11/09 14:58:21;;;;;;;10.43;4.45;;;14.00;90.40;;;;;;4892664;28;92146;-73
2022/11/09 15:01:16;;;;;;;10.77;4.43;;;14.10;90.30;;;;;;4884532;28;92137;-73
2022/11/09 15:03:42;;;;;;;9.10;3.88;;;14.10;90.50;;;;;;4880156;28;93843;-74
2022/11/09 15:06:11;;;;;;;7.65;3.47;;;14.00;90.40;;;;;;4884107;28;92089;-73
2022/11/09 15:08:53;;;;;;;9.63;3.95;;;14.00;90.40;;;;;;4888866;28;93074;-73
2022/11/09 15:11:19;;;;;;;9.45;4.05;;;14.10;90.50;;;;;;4894909;28;92278;-73
2022/11/09 15:13:45;;;;;;;8.48;3.92;;;14.10;90.40;;;;;;4894599;28;92248;-73
2022/11/09 15:16:21;;;;;;;7.93;4.15;;;14.00;90.70;;;;;;4886231;28;91717;-73
2022/11/09 15:18:48;;;;;;;9.80;4.07;;;14.00;90.90;;;;;;4880125;28;91743;-73
2022/11/09 15:21:31;;;;;;;7.55;4.00;;;14.00;90.90;;;;;;4890091;28;90673;-73
2022/11/09 15:24:06;;;;;;;9.65;4.28;;;13.90;91.30;;;;;;4886306;28;92463;-73
2022/11/09 15:26:47;;;;;;;10.32;5.03;;;13.90;91.30;;;;;;4885825;28;91408;-73
2022/11/09 15:29:29;;;;;;;11.90;5.78;;;13.80;91.50;;;;;;4878273;28;92927;-73
2022/11/09 15:32:00;;;;;;;16.80;8.45;;;13.80;91.80;;;;;;4884927;28;91878;-73
2022/11/09 15:34:34;;;;;;;10.98;6.28;;;13.80;91.90;;;;;;4888325;28;91554;-73
2022/11/09 15:37:00;;;;;;;8.98;4.70;;;13.80;91.90;;;;;;4884021;28;93049;-73
2022/11/09 15:39:25;;;;;;;11.65;4.80;;;13.80;91.90;;;;;;4885340;28;91975;-73
2022/11/09 15:41:51;;;;;;;7.65;4.07;;;13.70;92.20;;;;;;4894257;28;91922;-72
2022/11/09 15:44:19;;;;;;;7.72;4.18;;;13.70;92.30;;;;;;4898191;28;92381;-73
2022/11/09 15:46:48;;;;;;;8.02;4.43;;;13.60;92.70;;;;;;4889047;28;93328;-73
2022/11/09 15:49:22;;;;;;;9.40;4.70;;;13.60;92.80;;;;;;4890509;28;91821;-73
2022/11/09 15:51:48;;;;;;;10.70;4.35;;;13.70;93.00;;;;;;4896084;28;91720;-73
2022/11/09 15:54:14;;;;;;;10.85;4.88;;;13.60;93.00;;;;;;4893501;28;93365;-73
2022/11/09 15:56:40;;;;;;;8.15;4.03;;;13.70;93.40;;;;;;4895922;28;92535;-73
2022/11/09 15:59:07;;;;;;;10.77;4.75;;;13.70;93.40;;;;;;4893706;28;92090;-73
2022/11/09 16:01:33;;;;;;;13.77;5.57;;;13.60;93.80;;;;;;4897605;28;91950;-72
2022/11/09 16:03:58;;;;;;;9.60;4.72;;;13.50;94.10;;;;;;4889188;28;91989;-73
2022/11/09 16:06:25;;;;;;;12.07;6.28;;;13.50;94.30;;;;;;4889602;28;91866;-73
2022/11/09 16:08:52;;;;;;;12.77;6.53;;;13.50;94.30;;;;;;4883950;28;91742;-73
2022/11/09 16:11:18;;;;;;;13.77;7.55;;;13.50;94.30;;;;;;4885062;28;91167;-73
2022/11/09 16:13:44;;;;;;;13.48;6.95;;;13.50;94.90;;;;;;4893211;28;92217;-73
2022/11/09 16:16:12;;;;;;;16.73;7.30;;;13.50;95.00;;;;;;4880925;28;92055;-73
2022/11/09 16:18:37;;;;;;;14.65;6.93;;;13.40;95.10;;;;;;4882221;28;92341;-72
2022/11/09 16:21:12;;;;;;;14.25;7.03;;;13.50;95.30;;;;;;4895562;28;91974;-73
2022/11/09 16:23:38;;;;;;;14.50;6.50;;;13.40;96.00;;;;;;4893365;28;92237;-73
2022/11/09 16:26:09;;;;;;;12.40;6.28;;;13.40;95.40;;;;;;4886068;28;92208;-73
2022/11/09 16:28:36;;;;;;;14.32;6.18;;;13.50;95.60;;;;;;4886379;28;91698;-72
2022/11/09 16:31:02;;;;;;;14.98;5.90;;;13.30;96.00;;;;;;4897202;28;91561;-73
2022/11/09 16:33:28;;;;;;;13.40;5.88;;;13.30;96.00;;;;;;4879203;28;92241;-70
2022/11/09 16:35:57;;;;;;;12.48;6.07;;;13.30;96.00;;;;;;4884268;28;91493;-72
2022/11/09 16:38:23;;;;;;;11.65;6.20;;;13.40;96.30;;;;;;4887635;28;91774;-74
2022/11/09 16:40:48;;;;;;;14.27;5.85;;;13.40;96.30;;;;;;4881569;28;91497;-72
2022/11/09 16:43:15;;;;;;;14.13;6.22;;;13.40;96.30;;;;;;4884706;28;93180;-72
2022/11/09 16:45:48;;;;;;;16.15;6.03;;;13.40;96.40;;;;;;4885134;28;93295;-71
2022/11/09 16:48:16;;;;;;;12.40;6.35;;;13.40;96.80;;;;;;4881029;28;91938;-73
2022/11/09 16:50:42;;;;;;;17.00;6.47;;;13.40;96.60;;;;;;4888120;28;91347;-73
2022/11/09 16:53:08;;;;;;;14.77;7.82;;;13.40;97.00;;;;;;4886939;28;92181;-73
2022/11/09 16:55:34;;;;;;;14.00;6.82;;;13.20;97.50;;;;;;4880781;28;92015;-73
2022/11/09 16:58:00;;;;;;;14.65;6.55;;;13.20;97.50;;;;;;4877511;28;91886;-73